sensor_id;sensor_type;location;lat;lon;timestamp;P1;durP1;ratioP1;P2;durP2;ratioP2
12980;SDS011;6555;50.468;8.480;2022-12-11T00:00:57;6.53;;;4.63;;
12980;SDS011;6555;50.468;8.480;2022-12-11T00:06:03;6.07;;;4.67;;
12980;SDS011;6555;50.468;8.480;2022-12-11T00:11:07;7.27;;;4.97;;
12980;SDS011;6555;50.468;8.480;2022-12-11T00:16:11;8.23;;;5.40;;
12980;SDS011;6555;50.468;8.480;2022-12-11T00:21:14;4.93;;;3.60;;
12980;SDS011;6555;50.468;8.480;2022-12-11T00:26:17;5.80;;;4.43;;
12980;SDS011;6555;50.468;8.480;2022-12-11T00:31:22;7.63;;;5.30;;
12980;SDS011;6555;50.468;8.480;2022-12-11T00:36:26;6.97;;;5.17;;
12980;SDS011;6555;50.468;8.480;2022-12-11T00:41:29;5.90;;;4.47;;
12980;SDS011;6555;50.468;8.480;2022-12-11T00:46:34;3.80;;;3.13;;
12980;SDS011;6555;50.468;8.480;2022-12-11T00:51:37;3.83;;;3.23;;
12980;SDS011;6555;50.468;8.480;2022-12-11T00:56:40;3.13;;;2.77;;
12980;SDS011;6555;50.468;8.480;2022-12-11T01:01:45;3.80;;;3.03;;
12980;SDS011;6555;50.468;8.480;2022-12-11T01:06:48;4.07;;;3.20;;
12980;SDS011;6555;50.468;8.480;2022-12-11T01:11:51;5.33;;;3.50;;
12980;SDS011;6555;50.468;8.480;2022-12-11T01:16:55;4.73;;;3.53;;
12980;SDS011;6555;50.468;8.480;2022-12-11T01:21:58;4.30;;;3.40;;
12980;SDS011;6555;50.468;8.480;2022-12-11T01:27:01;3.97;;;3.00;;
12980;SDS011;6555;50.468;8.480;2022-12-11T01:32:06;3.53;;;2.97;;
12980;SDS011;6555;50.468;8.480;2022-12-11T01:37:09;4.50;;;3.23;;
12980;SDS011;6555;50.468;8.480;2022-12-11T01:42:13;4.47;;;3.53;;
12980;SDS011;6555;50.468;8.480;2022-12-11T01:47:19;3.43;;;3.13;;
12980;SDS011;6555;50.468;8.480;2022-12-11T01:52:22;3.30;;;2.87;;
12980;SDS011;6555;50.468;8.480;2022-12-11T01:57:25;3.67;;;3.17;;
12980;SDS011;6555;50.468;8.480;2022-12-11T02:02:30;4.07;;;3.67;;
12980;SDS011;6555;50.468;8.480;2022-12-11T02:07:36;3.93;;;2.73;;
12980;SDS011;6555;50.468;8.480;2022-12-11T02:12:46;4.93;;;3.40;;
12980;SDS011;6555;50.468;8.480;2022-12-11T02:17:57;3.43;;;2.87;;
12980;SDS011;6555;50.468;8.480;2022-12-11T02:23:20;5.37;;;3.57;;
12980;SDS011;6555;50.468;8.480;2022-12-11T02:28:36;4.00;;;3.07;;
12980;SDS011;6555;50.468;8.480;2022-12-11T02:33:44;3.63;;;3.23;;
12980;SDS011;6555;50.468;8.480;2022-12-11T02:38:54;4.43;;;3.60;;
12980;SDS011;6555;50.468;8.480;2022-12-11T02:44:01;5.60;;;3.77;;
12980;SDS011;6555;50.468;8.480;2022-12-11T02:49:06;4.87;;;3.30;;
12980;SDS011;6555;50.468;8.480;2022-12-11T02:54:12;4.20;;;3.27;;
12980;SDS011;6555;50.468;8.480;2022-12-11T02:59:21;4.47;;;3.60;;
12980;SDS011;6555;50.468;8.480;2022-12-11T03:04:28;4.63;;;3.53;;
12980;SDS011;6555;50.468;8.480;2022-12-11T03:09:31;4.90;;;3.70;;
12980;SDS011;6555;50.468;8.480;2022-12-11T03:14:36;4.67;;;3.47;;
12980;SDS011;6555;50.468;8.480;2022-12-11T03:19:41;5.93;;;4.43;;
12980;SDS011;6555;50.468;8.480;2022-12-11T03:24:52;4.63;;;3.90;;
12980;SDS011;6555;50.468;8.480;2022-12-11T03:30:03;4.07;;;3.30;;
12980;SDS011;6555;50.468;8.480;2022-12-11T03:35:11;4.83;;;3.73;;
12980;SDS011;6555;50.468;8.480;2022-12-11T03:40:18;5.77;;;4.10;;
12980;SDS011;6555;50.468;8.480;2022-12-11T03:45:25;4.80;;;3.60;;
12980;SDS011;6555;50.468;8.480;2022-12-11T03:50:31;5.43;;;4.00;;
12980;SDS011;6555;50.468;8.480;2022-12-11T03:55:36;4.53;;;3.47;;
12980;SDS011;6555;50.468;8.480;2022-12-11T04:00:42;5.13;;;3.57;;
12980;SDS011;6555;50.468;8.480;2022-12-11T04:05:46;5.13;;;3.97;;
12980;SDS011;6555;50.468;8.480;2022-12-11T04:10:50;6.43;;;3.97;;
12980;SDS011;6555;50.468;8.480;2022-12-11T04:16:15;4.60;;;3.37;;
12980;SDS011;6555;50.468;8.480;2022-12-11T04:21:18;5.80;;;4.33;;
12980;SDS011;6555;50.468;8.480;2022-12-11T04:26:40;5.73;;;4.10;;
12980;SDS011;6555;50.468;8.480;2022-12-11T04:31:45;6.27;;;4.73;;
12980;SDS011;6555;50.468;8.480;2022-12-11T04:36:48;5.23;;;3.97;;
12980;SDS011;6555;50.468;8.480;2022-12-11T04:41:51;6.47;;;4.37;;
12980;SDS011;6555;50.468;8.480;2022-12-11T04:46:55;6.90;;;5.27;;
12980;SDS011;6555;50.468;8.480;2022-12-11T04:51:58;6.63;;;4.90;;
12980;SDS011;6555;50.468;8.480;2022-12-11T04:57:01;7.37;;;4.97;;
12980;SDS011;6555;50.468;8.480;2022-12-11T05:02:06;8.13;;;5.00;;
12980;SDS011;6555;50.468;8.480;2022-12-11T05:07:08;6.80;;;4.70;;
12980;SDS011;6555;50.468;8.480;2022-12-11T05:12:12;6.87;;;4.73;;
12980;SDS011;6555;50.468;8.480;2022-12-11T05:17:16;6.00;;;4.57;;
12980;SDS011;6555;50.468;8.480;2022-12-11T05:22:19;6.83;;;4.67;;
12980;SDS011;6555;50.468;8.480;2022-12-11T05:27:22;8.03;;;5.40;;
12980;SDS011;6555;50.468;8.480;2022-12-11T05:32:27;6.03;;;4.30;;
12980;SDS011;6555;50.468;8.480;2022-12-11T05:37:31;7.03;;;5.10;;
12980;SDS011;6555;50.468;8.480;2022-12-11T05:42:34;8.60;;;5.17;;
12980;SDS011;6555;50.468;8.480;2022-12-11T05:47:39;6.30;;;4.47;;
12980;SDS011;6555;50.468;8.480;2022-12-11T05:52:41;8.70;;;4.90;;
12980;SDS011;6555;50.468;8.480;2022-12-11T05:57:44;7.50;;;5.03;;
12980;SDS011;6555;50.468;8.480;2022-12-11T06:02:49;7.20;;;5.03;;
12980;SDS011;6555;50.468;8.480;2022-12-11T06:07:52;6.83;;;4.80;;
12980;SDS011;6555;50.468;8.480;2022-12-11T06:12:55;7.20;;;4.73;;
12980;SDS011;6555;50.468;8.480;2022-12-11T06:17:59;7.70;;;5.10;;
12980;SDS011;6555;50.468;8.480;2022-12-11T06:23:02;8.17;;;5.90;;
12980;SDS011;6555;50.468;8.480;2022-12-11T06:28:05;6.43;;;4.90;;
12980;SDS011;6555;50.468;8.480;2022-12-11T06:33:10;8.80;;;5.20;;
12980;SDS011;6555;50.468;8.480;2022-12-11T06:38:13;9.73;;;5.87;;
12980;SDS011;6555;50.468;8.480;2022-12-11T06:43:16;7.13;;;4.97;;
12980;SDS011;6555;50.468;8.480;2022-12-11T06:48:21;8.53;;;5.50;;
12980;SDS011;6555;50.468;8.480;2022-12-11T06:53:24;8.33;;;5.77;;
12980;SDS011;6555;50.468;8.480;2022-12-11T06:58:27;8.07;;;5.37;;
12980;SDS011;6555;50.468;8.480;2022-12-11T07:03:31;8.27;;;5.17;;
12980;SDS011;6555;50.468;8.480;2022-12-11T07:08:34;9.27;;;5.37;;
12980;SDS011;6555;50.468;8.480;2022-12-11T07:13:37;8.77;;;5.67;;
12980;SDS011;6555;50.468;8.480;2022-12-11T07:18:47;6.73;;;4.63;;
12980;SDS011;6555;50.468;8.480;2022-12-11T07:23:51;8.87;;;5.93;;
12980;SDS011;6555;50.468;8.480;2022-12-11T07:28:55;8.07;;;5.43;;
12980;SDS011;6555;50.468;8.480;2022-12-11T07:34:01;7.60;;;5.50;;
12980;SDS011;6555;50.468;8.480;2022-12-11T07:39:06;7.50;;;4.77;;
12980;SDS011;6555;50.468;8.480;2022-12-11T07:44:09;8.77;;;5.80;;
12980;SDS011;6555;50.468;8.480;2022-12-11T07:49:13;11.80;;;6.37;;
12980;SDS011;6555;50.468;8.480;2022-12-11T07:54:17;8.87;;;6.27;;
12980;SDS011;6555;50.468;8.480;2022-12-11T07:59:21;8.87;;;6.17;;
12980;SDS011;6555;50.468;8.480;2022-12-11T08:04:25;8.73;;;6.37;;
12980;SDS011;6555;50.468;8.480;2022-12-11T08:09:28;9.30;;;6.33;;
12980;SDS011;6555;50.468;8.480;2022-12-11T08:14:31;10.87;;;6.77;;
12980;SDS011;6555;50.468;8.480;2022-12-11T08:19:35;9.70;;;5.77;;
12980;SDS011;6555;50.468;8.480;2022-12-11T08:24:38;9.80;;;6.07;;
12980;SDS011;6555;50.468;8.480;2022-12-11T08:29:41;10.03;;;6.67;;
12980;SDS011;6555;50.468;8.480;2022-12-11T08:34:47;6.27;;;4.77;;
12980;SDS011;6555;50.468;8.480;2022-12-11T08:39:52;6.37;;;4.40;;
12980;SDS011;6555;50.468;8.480;2022-12-11T08:44:55;6.50;;;4.40;;
12980;SDS011;6555;50.468;8.480;2022-12-11T08:50:00;6.00;;;4.17;;
12980;SDS011;6555;50.468;8.480;2022-12-11T08:55:03;5.60;;;3.73;;
12980;SDS011;6555;50.468;8.480;2022-12-11T09:00:07;4.10;;;2.93;;
12980;SDS011;6555;50.468;8.480;2022-12-11T09:05:14;5.40;;;3.90;;
12980;SDS011;6555;50.468;8.480;2022-12-11T09:10:17;3.87;;;3.07;;
12980;SDS011;6555;50.468;8.480;2022-12-11T09:15:20;4.03;;;2.97;;
12980;SDS011;6555;50.468;8.480;2022-12-11T09:20:25;5.03;;;3.57;;
12980;SDS011;6555;50.468;8.480;2022-12-11T09:25:29;4.10;;;2.93;;
12980;SDS011;6555;50.468;8.480;2022-12-11T09:30:33;3.43;;;3.07;;
12980;SDS011;6555;50.468;8.480;2022-12-11T09:35:37;5.47;;;3.20;;
12980;SDS011;6555;50.468;8.480;2022-12-11T09:40:41;4.80;;;3.27;;
12980;SDS011;6555;50.468;8.480;2022-12-11T09:45:44;3.90;;;3.17;;
12980;SDS011;6555;50.468;8.480;2022-12-11T09:50:49;3.97;;;2.93;;
12980;SDS011;6555;50.468;8.480;2022-12-11T09:55:55;5.07;;;3.50;;
12980;SDS011;6555;50.468;8.480;2022-12-11T10:01:07;4.90;;;3.80;;
12980;SDS011;6555;50.468;8.480;2022-12-11T10:06:19;3.17;;;2.67;;
12980;SDS011;6555;50.468;8.480;2022-12-11T10:11:37;3.80;;;2.60;;
12980;SDS011;6555;50.468;8.480;2022-12-11T10:16:57;4.33;;;2.90;;
12980;SDS011;6555;50.468;8.480;2022-12-11T10:22:07;3.93;;;2.90;;
12980;SDS011;6555;50.468;8.480;2022-12-11T10:27:20;3.93;;;2.80;;
12980;SDS011;6555;50.468;8.480;2022-12-11T10:32:28;3.90;;;2.90;;
12980;SDS011;6555;50.468;8.480;2022-12-11T10:37:38;3.87;;;3.00;;
12980;SDS011;6555;50.468;8.480;2022-12-11T10:42:50;5.03;;;3.40;;
12980;SDS011;6555;50.468;8.480;2022-12-11T10:48:01;3.67;;;2.67;;
12980;SDS011;6555;50.468;8.480;2022-12-11T10:53:16;3.53;;;2.63;;
12980;SDS011;6555;50.468;8.480;2022-12-11T10:58:22;3.83;;;3.17;;
12980;SDS011;6555;50.468;8.480;2022-12-11T11:03:28;4.50;;;3.20;;
12980;SDS011;6555;50.468;8.480;2022-12-11T11:08:38;4.47;;;3.20;;
12980;SDS011;6555;50.468;8.480;2022-12-11T11:13:42;3.20;;;2.63;;
12980;SDS011;6555;50.468;8.480;2022-12-11T11:18:49;3.90;;;3.00;;
12980;SDS011;6555;50.468;8.480;2022-12-11T11:23:56;3.77;;;2.97;;
12980;SDS011;6555;50.468;8.480;2022-12-11T11:28:59;4.87;;;3.67;;
12980;SDS011;6555;50.468;8.480;2022-12-11T11:34:04;4.33;;;3.33;;
12980;SDS011;6555;50.468;8.480;2022-12-11T11:39:15;3.83;;;2.87;;
12980;SDS011;6555;50.468;8.480;2022-12-11T11:44:22;3.27;;;2.73;;
12980;SDS011;6555;50.468;8.480;2022-12-11T11:49:34;3.70;;;3.00;;
12980;SDS011;6555;50.468;8.480;2022-12-11T11:54:49;4.10;;;3.07;;
12980;SDS011;6555;50.468;8.480;2022-12-11T11:59:59;3.60;;;2.67;;
12980;SDS011;6555;50.468;8.480;2022-12-11T12:05:12;4.10;;;2.67;;
12980;SDS011;6555;50.468;8.480;2022-12-11T12:10:18;4.10;;;3.07;;
12980;SDS011;6555;50.468;8.480;2022-12-11T12:15:29;5.37;;;3.43;;
12980;SDS011;6555;50.468;8.480;2022-12-11T12:20:45;6.37;;;4.63;;
12980;SDS011;6555;50.468;8.480;2022-12-11T12:25:56;4.23;;;3.30;;
12980;SDS011;6555;50.468;8.480;2022-12-11T12:31:06;5.37;;;3.67;;
12980;SDS011;6555;50.468;8.480;2022-12-11T12:36:20;4.50;;;3.37;;
12980;SDS011;6555;50.468;8.480;2022-12-11T12:41:36;4.13;;;2.80;;
12980;SDS011;6555;50.468;8.480;2022-12-11T12:46:48;3.73;;;2.80;;
12980;SDS011;6555;50.468;8.480;2022-12-11T12:51:59;4.00;;;2.90;;
12980;SDS011;6555;50.468;8.480;2022-12-11T12:57:04;4.23;;;2.87;;
12980;SDS011;6555;50.468;8.480;2022-12-11T13:02:11;3.23;;;2.50;;
12980;SDS011;6555;50.468;8.480;2022-12-11T13:07:19;7.20;;;3.23;;
12980;SDS011;6555;50.468;8.480;2022-12-11T13:12:33;4.10;;;3.33;;
12980;SDS011;6555;50.468;8.480;2022-12-11T13:17:43;4.20;;;2.90;;
12980;SDS011;6555;50.468;8.480;2022-12-11T13:22:47;3.60;;;2.43;;
12980;SDS011;6555;50.468;8.480;2022-12-11T13:28:05;5.23;;;3.30;;
12980;SDS011;6555;50.468;8.480;2022-12-11T13:33:13;3.47;;;2.87;;
12980;SDS011;6555;50.468;8.480;2022-12-11T13:38:19;3.73;;;2.77;;
12980;SDS011;6555;50.468;8.480;2022-12-11T13:43:25;4.10;;;3.37;;
12980;SDS011;6555;50.468;8.480;2022-12-11T13:48:32;4.10;;;2.63;;
12980;SDS011;6555;50.468;8.480;2022-12-11T13:53:39;3.57;;;2.70;;
12980;SDS011;6555;50.468;8.480;2022-12-11T13:58:43;4.37;;;3.00;;
12980;SDS011;6555;50.468;8.480;2022-12-11T14:03:47;4.23;;;3.20;;
12980;SDS011;6555;50.468;8.480;2022-12-11T14:08:55;3.10;;;2.40;;
12980;SDS011;6555;50.468;8.480;2022-12-11T14:14:02;2.63;;;2.30;;
12980;SDS011;6555;50.468;8.480;2022-12-11T14:19:08;2.33;;;1.90;;
12980;SDS011;6555;50.468;8.480;2022-12-11T14:24:11;2.57;;;2.10;;
12980;SDS011;6555;50.468;8.480;2022-12-11T14:29:23;3.97;;;2.57;;
12980;SDS011;6555;50.468;8.480;2022-12-11T14:34:29;2.43;;;2.03;;
12980;SDS011;6555;50.468;8.480;2022-12-11T14:39:36;2.53;;;2.23;;
12980;SDS011;6555;50.468;8.480;2022-12-11T14:44:47;3.43;;;2.13;;
12980;SDS011;6555;50.468;8.480;2022-12-11T14:49:54;3.40;;;2.20;;
12980;SDS011;6555;50.468;8.480;2022-12-11T14:55:02;4.50;;;1.97;;
12980;SDS011;6555;50.468;8.480;2022-12-11T15:00:18;3.30;;;2.27;;
12980;SDS011;6555;50.468;8.480;2022-12-11T15:05:23;3.10;;;2.23;;
12980;SDS011;6555;50.468;8.480;2022-12-11T15:10:28;2.60;;;2.13;;
12980;SDS011;6555;50.468;8.480;2022-12-11T15:15:42;2.43;;;2.00;;
12980;SDS011;6555;50.468;8.480;2022-12-11T15:20:49;2.57;;;2.00;;
12980;SDS011;6555;50.468;8.480;2022-12-11T15:25:54;2.20;;;2.00;;
12980;SDS011;6555;50.468;8.480;2022-12-11T15:31:03;2.70;;;2.37;;
12980;SDS011;6555;50.468;8.480;2022-12-11T15:36:20;4.33;;;3.30;;
12980;SDS011;6555;50.468;8.480;2022-12-11T15:41:25;3.40;;;2.83;;
12980;SDS011;6555;50.468;8.480;2022-12-11T15:46:35;4.63;;;3.00;;
12980;SDS011;6555;50.468;8.480;2022-12-11T15:51:38;4.40;;;2.80;;
12980;SDS011;6555;50.468;8.480;2022-12-11T15:56:43;3.07;;;2.50;;
12980;SDS011;6555;50.468;8.480;2022-12-11T16:01:48;4.20;;;2.60;;
12980;SDS011;6555;50.468;8.480;2022-12-11T16:06:51;3.97;;;2.93;;
12980;SDS011;6555;50.468;8.480;2022-12-11T16:11:55;2.63;;;2.20;;
12980;SDS011;6555;50.468;8.480;2022-12-11T16:16:59;3.10;;;2.53;;
12980;SDS011;6555;50.468;8.480;2022-12-11T16:22:02;2.63;;;2.13;;
12980;SDS011;6555;50.468;8.480;2022-12-11T16:27:06;3.50;;;2.47;;
12980;SDS011;6555;50.468;8.480;2022-12-11T16:32:12;2.87;;;2.57;;
12980;SDS011;6555;50.468;8.480;2022-12-11T16:37:15;3.47;;;2.43;;
12980;SDS011;6555;50.468;8.480;2022-12-11T16:42:18;4.77;;;3.63;;
12980;SDS011;6555;50.468;8.480;2022-12-11T16:47:22;4.93;;;3.60;;
12980;SDS011;6555;50.468;8.480;2022-12-11T16:52:25;3.90;;;3.13;;
12980;SDS011;6555;50.468;8.480;2022-12-11T16:57:28;3.90;;;2.67;;
12980;SDS011;6555;50.468;8.480;2022-12-11T17:02:33;5.30;;;3.50;;
12980;SDS011;6555;50.468;8.480;2022-12-11T17:07:36;4.50;;;3.27;;
12980;SDS011;6555;50.468;8.480;2022-12-11T17:12:39;3.80;;;2.90;;
12980;SDS011;6555;50.468;8.480;2022-12-11T17:17:43;3.47;;;2.60;;
12980;SDS011;6555;50.468;8.480;2022-12-11T17:22:46;3.53;;;2.60;;
12980;SDS011;6555;50.468;8.480;2022-12-11T17:27:49;3.23;;;2.53;;
12980;SDS011;6555;50.468;8.480;2022-12-11T17:32:54;4.03;;;3.07;;
12980;SDS011;6555;50.468;8.480;2022-12-11T17:37:58;3.13;;;2.37;;
12980;SDS011;6555;50.468;8.480;2022-12-11T17:43:02;3.40;;;2.60;;
12980;SDS011;6555;50.468;8.480;2022-12-11T17:48:11;2.67;;;2.20;;
12980;SDS011;6555;50.468;8.480;2022-12-11T17:53:14;2.33;;;1.93;;
12980;SDS011;6555;50.468;8.480;2022-12-11T17:58:19;3.83;;;2.70;;
12980;SDS011;6555;50.468;8.480;2022-12-11T18:03:26;2.80;;;2.20;;
12980;SDS011;6555;50.468;8.480;2022-12-11T18:08:29;4.27;;;3.23;;
12980;SDS011;6555;50.468;8.480;2022-12-11T18:13:33;3.53;;;2.87;;
12980;SDS011;6555;50.468;8.480;2022-12-11T18:18:37;5.20;;;3.40;;
12980;SDS011;6555;50.468;8.480;2022-12-11T18:23:41;5.63;;;3.80;;
12980;SDS011;6555;50.468;8.480;2022-12-11T18:28:45;3.90;;;3.10;;
12980;SDS011;6555;50.468;8.480;2022-12-11T18:33:50;4.30;;;3.27;;
12980;SDS011;6555;50.468;8.480;2022-12-11T18:38:53;5.03;;;3.77;;
12980;SDS011;6555;50.468;8.480;2022-12-11T18:43:57;5.97;;;4.43;;
12980;SDS011;6555;50.468;8.480;2022-12-11T18:49:09;5.97;;;3.87;;
12980;SDS011;6555;50.468;8.480;2022-12-11T18:54:12;3.90;;;3.30;;
12980;SDS011;6555;50.468;8.480;2022-12-11T18:59:15;4.43;;;3.40;;
12980;SDS011;6555;50.468;8.480;2022-12-11T19:04:19;3.37;;;2.70;;
12980;SDS011;6555;50.468;8.480;2022-12-11T19:09:22;5.53;;;3.03;;
12980;SDS011;6555;50.468;8.480;2022-12-11T19:14:26;4.30;;;3.27;;
12980;SDS011;6555;50.468;8.480;2022-12-11T19:19:30;5.17;;;3.93;;
12980;SDS011;6555;50.468;8.480;2022-12-11T19:24:34;5.70;;;3.90;;
12980;SDS011;6555;50.468;8.480;2022-12-11T19:29:37;6.63;;;4.50;;
12980;SDS011;6555;50.468;8.480;2022-12-11T19:34:41;5.10;;;4.17;;
12980;SDS011;6555;50.468;8.480;2022-12-11T19:39:44;6.13;;;3.67;;
12980;SDS011;6555;50.468;8.480;2022-12-11T19:44:47;5.20;;;3.80;;
12980;SDS011;6555;50.468;8.480;2022-12-11T19:49:52;5.53;;;3.93;;
12980;SDS011;6555;50.468;8.480;2022-12-11T19:54:59;5.93;;;4.17;;
12980;SDS011;6555;50.468;8.480;2022-12-11T20:00:03;4.87;;;3.60;;
12980;SDS011;6555;50.468;8.480;2022-12-11T20:05:13;5.07;;;3.67;;
12980;SDS011;6555;50.468;8.480;2022-12-11T20:10:17;5.00;;;3.63;;
12980;SDS011;6555;50.468;8.480;2022-12-11T20:15:20;3.83;;;3.00;;
12980;SDS011;6555;50.468;8.480;2022-12-11T20:20:25;3.53;;;3.10;;
12980;SDS011;6555;50.468;8.480;2022-12-11T20:25:29;4.43;;;3.33;;
12980;SDS011;6555;50.468;8.480;2022-12-11T20:30:32;4.50;;;3.43;;
12980;SDS011;6555;50.468;8.480;2022-12-11T20:35:37;4.87;;;3.63;;
12980;SDS011;6555;50.468;8.480;2022-12-11T20:40:44;6.73;;;4.00;;
12980;SDS011;6555;50.468;8.480;2022-12-11T20:45:47;5.27;;;4.13;;
12980;SDS011;6555;50.468;8.480;2022-12-11T20:50:52;4.90;;;3.60;;
12980;SDS011;6555;50.468;8.480;2022-12-11T20:55:56;4.73;;;3.20;;
12980;SDS011;6555;50.468;8.480;2022-12-11T21:00:59;5.43;;;4.00;;
12980;SDS011;6555;50.468;8.480;2022-12-11T21:06:03;5.67;;;3.73;;
12980;SDS011;6555;50.468;8.480;2022-12-11T21:11:06;5.67;;;4.27;;
12980;SDS011;6555;50.468;8.480;2022-12-11T21:16:10;4.77;;;3.97;;
12980;SDS011;6555;50.468;8.480;2022-12-11T21:21:15;4.23;;;3.60;;
12980;SDS011;6555;50.468;8.480;2022-12-11T21:26:19;4.63;;;3.63;;
12980;SDS011;6555;50.468;8.480;2022-12-11T21:31:22;4.93;;;3.37;;
12980;SDS011;6555;50.468;8.480;2022-12-11T21:36:27;4.93;;;3.40;;
12980;SDS011;6555;50.468;8.480;2022-12-11T21:41:30;4.23;;;3.00;;
12980;SDS011;6555;50.468;8.480;2022-12-11T21:46:33;4.20;;;3.13;;
12980;SDS011;6555;50.468;8.480;2022-12-11T21:51:38;3.37;;;2.97;;
12980;SDS011;6555;50.468;8.480;2022-12-11T21:56:47;4.43;;;2.80;;
12980;SDS011;6555;50.468;8.480;2022-12-11T22:01:51;3.50;;;2.80;;
12980;SDS011;6555;50.468;8.480;2022-12-11T22:06:55;2.87;;;2.33;;
12980;SDS011;6555;50.468;8.480;2022-12-11T22:11:58;3.50;;;2.83;;
12980;SDS011;6555;50.468;8.480;2022-12-11T22:17:01;4.17;;;2.97;;
12980;SDS011;6555;50.468;8.480;2022-12-11T22:22:05;5.73;;;4.00;;
12980;SDS011;6555;50.468;8.480;2022-12-11T22:27:09;5.83;;;3.70;;
12980;SDS011;6555;50.468;8.480;2022-12-11T22:32:12;3.87;;;3.03;;
12980;SDS011;6555;50.468;8.480;2022-12-11T22:37:16;4.43;;;3.33;;
12980;SDS011;6555;50.468;8.480;2022-12-11T22:42:19;4.27;;;3.13;;
12980;SDS011;6555;50.468;8.480;2022-12-11T22:47:22;3.83;;;3.10;;
12980;SDS011;6555;50.468;8.480;2022-12-11T22:52:26;3.63;;;2.77;;
12980;SDS011;6555;50.468;8.480;2022-12-11T22:57:30;4.13;;;3.10;;
12980;SDS011;6555;50.468;8.480;2022-12-11T23:02:33;4.33;;;3.33;;
12980;SDS011;6555;50.468;8.480;2022-12-11T23:07:37;4.27;;;3.23;;
12980;SDS011;6555;50.468;8.480;2022-12-11T23:12:40;3.37;;;2.97;;
12980;SDS011;6555;50.468;8.480;2022-12-11T23:17:44;3.87;;;3.07;;
12980;SDS011;6555;50.468;8.480;2022-12-11T23:22:48;4.60;;;3.80;;
12980;SDS011;6555;50.468;8.480;2022-12-11T23:27:51;4.00;;;3.10;;
12980;SDS011;6555;50.468;8.480;2022-12-11T23:32:54;4.17;;;3.07;;
12980;SDS011;6555;50.468;8.480;2022-12-11T23:37:59;5.07;;;3.57;;
12980;SDS011;6555;50.468;8.480;2022-12-11T23:43:02;4.53;;;3.00;;
12980;SDS011;6555;50.468;8.480;2022-12-11T23:48:05;5.07;;;3.70;;
12980;SDS011;6555;50.468;8.480;2022-12-11T23:53:09;5.00;;;3.10;;
12980;SDS011;6555;50.468;8.480;2022-12-11T23:58:12;4.50;;;3.37;;
